Hornsea, United Kingdom
Current Conditions -  °F | °C
As of 1:50 PM on Friday 19 Dec 2014 (Local Time) from EGXV Reporting Station
Few Clouds Few Clouds  
Wind Chill: 39°   Ceiling: Unl
Heat Index: 46°   Visibility: 6mi
Dew Point: 34°   Wind: 18mph
Humidity: 62%   Direction: 270°W
Pressure: 29.8"   Gusts: 32mph
Location:  53.91°N, 0.17°W
Report Text: EGXV 191350Z AUTO 27016G28KT 9999 FEW040/// 08/01 Q1009
Loading
Personal Weather Stations






























Interactive Weather Map New forecast layout! Learn more

10-Day Weather Forecast

Advertisements
Track Severe Weather on mobile